sensor_id;sensor_type;location;lat;lon;timestamp;P1;durP1;ratioP1;P2;durP2;ratioP2
13173;SDS011;6652;48.802;9.190;2023-11-19T00:00:30;4.15;;;2.10;;
13173;SDS011;6652;48.802;9.190;2023-11-19T00:02:55;3.30;;;1.92;;
13173;SDS011;6652;48.802;9.190;2023-11-19T00:05:22;7.05;;;2.58;;
13173;SDS011;6652;48.802;9.190;2023-11-19T00:07:49;3.47;;;2.00;;
13173;SDS011;6652;48.802;9.190;2023-11-19T00:10:17;2.75;;;1.90;;
13173;SDS011;6652;48.802;9.190;2023-11-19T00:12:45;3.67;;;2.10;;
13173;SDS011;6652;48.802;9.190;2023-11-19T00:15:13;4.55;;;2.13;;
13173;SDS011;6652;48.802;9.190;2023-11-19T00:17:40;5.57;;;2.10;;
13173;SDS011;6652;48.802;9.190;2023-11-19T00:20:09;7.88;;;2.78;;
13173;SDS011;6652;48.802;9.190;2023-11-19T00:22:37;4.22;;;2.28;;
13173;SDS011;6652;48.802;9.190;2023-11-19T00:25:04;3.30;;;2.08;;
13173;SDS011;6652;48.802;9.190;2023-11-19T00:27:33;6.03;;;2.63;;
13173;SDS011;6652;48.802;9.190;2023-11-19T00:30:00;6.45;;;2.65;;
13173;SDS011;6652;48.802;9.190;2023-11-19T00:32:26;4.57;;;2.22;;
13173;SDS011;6652;48.802;9.190;2023-11-19T00:34:54;2.97;;;2.17;;
13173;SDS011;6652;48.802;9.190;2023-11-19T00:37:21;2.95;;;2.28;;
13173;SDS011;6652;48.802;9.190;2023-11-19T00:39:48;3.25;;;2.22;;
13173;SDS011;6652;48.802;9.190;2023-11-19T00:42:15;2.63;;;1.85;;
13173;SDS011;6652;48.802;9.190;2023-11-19T00:44:43;6.47;;;2.33;;
13173;SDS011;6652;48.802;9.190;2023-11-19T00:47:10;3.92;;;2.30;;
13173;SDS011;6652;48.802;9.190;2023-11-19T00:49:37;3.47;;;2.35;;
13173;SDS011;6652;48.802;9.190;2023-11-19T00:52:05;6.28;;;2.65;;
13173;SDS011;6652;48.802;9.190;2023-11-19T00:54:32;3.90;;;2.30;;
13173;SDS011;6652;48.802;9.190;2023-11-19T00:56:58;3.47;;;2.38;;
13173;SDS011;6652;48.802;9.190;2023-11-19T00:59:26;4.25;;;2.45;;
13173;SDS011;6652;48.802;9.190;2023-11-19T01:01:55;4.30;;;2.75;;
13173;SDS011;6652;48.802;9.190;2023-11-19T01:04:22;8.50;;;2.72;;
13173;SDS011;6652;48.802;9.190;2023-11-19T01:06:49;8.95;;;2.83;;
13173;SDS011;6652;48.802;9.190;2023-11-19T01:09:16;5.03;;;2.50;;
13173;SDS011;6652;48.802;9.190;2023-11-19T01:11:42;4.22;;;2.83;;
13173;SDS011;6652;48.802;9.190;2023-11-19T01:14:09;6.28;;;3.03;;
13173;SDS011;6652;48.802;9.190;2023-11-19T01:16:36;5.82;;;2.78;;
13173;SDS011;6652;48.802;9.190;2023-11-19T01:19:04;3.55;;;2.55;;
13173;SDS011;6652;48.802;9.190;2023-11-19T01:21:31;3.90;;;2.90;;
13173;SDS011;6652;48.802;9.190;2023-11-19T01:23:58;5.05;;;3.22;;
13173;SDS011;6652;48.802;9.190;2023-11-19T01:26:26;6.70;;;2.83;;
13173;SDS011;6652;48.802;9.190;2023-11-19T01:28:52;8.15;;;3.20;;
13173;SDS011;6652;48.802;9.190;2023-11-19T01:31:19;4.95;;;2.97;;
13173;SDS011;6652;48.802;9.190;2023-11-19T01:33:46;5.00;;;2.83;;
13173;SDS011;6652;48.802;9.190;2023-11-19T01:36:14;5.82;;;2.60;;
13173;SDS011;6652;48.802;9.190;2023-11-19T01:38:41;5.88;;;2.80;;
13173;SDS011;6652;48.802;9.190;2023-11-19T01:41:08;4.38;;;3.00;;
13173;SDS011;6652;48.802;9.190;2023-11-19T01:43:35;6.95;;;3.78;;
13173;SDS011;6652;48.802;9.190;2023-11-19T01:46:04;3.90;;;2.40;;
13173;SDS011;6652;48.802;9.190;2023-11-19T01:48:34;6.35;;;2.67;;
13173;SDS011;6652;48.802;9.190;2023-11-19T01:51:04;5.75;;;3.42;;
13173;SDS011;6652;48.802;9.190;2023-11-19T01:53:34;4.65;;;2.78;;
13173;SDS011;6652;48.802;9.190;2023-11-19T01:56:02;10.15;;;6.03;;
13173;SDS011;6652;48.802;9.190;2023-11-19T01:58:31;5.53;;;2.67;;
13173;SDS011;6652;48.802;9.190;2023-11-19T02:00:58;6.50;;;3.15;;
13173;SDS011;6652;48.802;9.190;2023-11-19T02:03:25;5.88;;;3.42;;
13173;SDS011;6652;48.802;9.190;2023-11-19T02:05:54;5.15;;;3.10;;
13173;SDS011;6652;48.802;9.190;2023-11-19T02:08:21;6.13;;;3.67;;
13173;SDS011;6652;48.802;9.190;2023-11-19T02:10:49;8.30;;;3.13;;
13173;SDS011;6652;48.802;9.190;2023-11-19T02:13:16;9.05;;;3.80;;
13173;SDS011;6652;48.802;9.190;2023-11-19T02:15:44;7.50;;;3.38;;
13173;SDS011;6652;48.802;9.190;2023-11-19T02:18:17;6.00;;;3.63;;
13173;SDS011;6652;48.802;9.190;2023-11-19T02:20:44;5.43;;;3.03;;
13173;SDS011;6652;48.802;9.190;2023-11-19T02:23:11;8.15;;;3.05;;
13173;SDS011;6652;48.802;9.190;2023-11-19T02:25:38;7.97;;;3.25;;
13173;SDS011;6652;48.802;9.190;2023-11-19T02:28:07;5.35;;;2.90;;
13173;SDS011;6652;48.802;9.190;2023-11-19T02:30:36;7.55;;;3.33;;
13173;SDS011;6652;48.802;9.190;2023-11-19T02:33:04;6.35;;;3.58;;
13173;SDS011;6652;48.802;9.190;2023-11-19T02:35:32;5.43;;;3.33;;
13173;SDS011;6652;48.802;9.190;2023-11-19T02:37:59;6.47;;;4.00;;
13173;SDS011;6652;48.802;9.190;2023-11-19T02:40:29;4.97;;;3.22;;
13173;SDS011;6652;48.802;9.190;2023-11-19T02:42:56;4.03;;;3.25;;
13173;SDS011;6652;48.802;9.190;2023-11-19T02:45:25;5.38;;;3.67;;
13173;SDS011;6652;48.802;9.190;2023-11-19T02:47:52;6.50;;;4.30;;
13173;SDS011;6652;48.802;9.190;2023-11-19T02:50:20;7.70;;;4.00;;
13173;SDS011;6652;48.802;9.190;2023-11-19T02:52:51;7.15;;;4.15;;
13173;SDS011;6652;48.802;9.190;2023-11-19T02:55:21;6.00;;;3.45;;
13173;SDS011;6652;48.802;9.190;2023-11-19T02:57:49;4.90;;;3.72;;
13173;SDS011;6652;48.802;9.190;2023-11-19T03:00:18;6.03;;;3.97;;
13173;SDS011;6652;48.802;9.190;2023-11-19T03:02:50;7.70;;;4.50;;
13173;SDS011;6652;48.802;9.190;2023-11-19T03:05:24;8.25;;;4.22;;
13173;SDS011;6652;48.802;9.190;2023-11-19T03:07:51;8.73;;;5.72;;
13173;SDS011;6652;48.802;9.190;2023-11-19T03:10:18;5.57;;;4.20;;
13173;SDS011;6652;48.802;9.190;2023-11-19T03:12:45;7.35;;;4.97;;
13173;SDS011;6652;48.802;9.190;2023-11-19T03:15:12;9.60;;;5.50;;
13173;SDS011;6652;48.802;9.190;2023-11-19T03:17:39;7.28;;;5.28;;
13173;SDS011;6652;48.802;9.190;2023-11-19T03:20:09;12.30;;;5.75;;
13173;SDS011;6652;48.802;9.190;2023-11-19T03:22:40;8.27;;;6.05;;
13173;SDS011;6652;48.802;9.190;2023-11-19T03:25:08;7.25;;;5.47;;
13173;SDS011;6652;48.802;9.190;2023-11-19T03:27:35;9.55;;;5.82;;
13173;SDS011;6652;48.802;9.190;2023-11-19T03:30:03;11.13;;;6.75;;
13173;SDS011;6652;48.802;9.190;2023-11-19T03:32:31;10.45;;;6.25;;
13173;SDS011;6652;48.802;9.190;2023-11-19T03:34:59;7.32;;;5.53;;
13173;SDS011;6652;48.802;9.190;2023-11-19T03:37:28;8.50;;;6.00;;
13173;SDS011;6652;48.802;9.190;2023-11-19T03:39:55;8.93;;;6.45;;
13173;SDS011;6652;48.802;9.190;2023-11-19T03:42:24;11.57;;;5.75;;
13173;SDS011;6652;48.802;9.190;2023-11-19T03:44:51;8.07;;;6.20;;
13173;SDS011;6652;48.802;9.190;2023-11-19T03:47:18;8.70;;;6.13;;
13173;SDS011;6652;48.802;9.190;2023-11-19T03:49:47;12.10;;;6.43;;
13173;SDS011;6652;48.802;9.190;2023-11-19T03:52:14;10.77;;;6.60;;
13173;SDS011;6652;48.802;9.190;2023-11-19T03:54:43;9.30;;;6.53;;
13173;SDS011;6652;48.802;9.190;2023-11-19T03:57:10;9.68;;;6.20;;
13173;SDS011;6652;48.802;9.190;2023-11-19T03:59:37;10.00;;;5.95;;
13173;SDS011;6652;48.802;9.190;2023-11-19T04:02:04;7.15;;;5.72;;
13173;SDS011;6652;48.802;9.190;2023-11-19T04:04:31;8.05;;;6.13;;
13173;SDS011;6652;48.802;9.190;2023-11-19T04:06:58;6.05;;;4.80;;
13173;SDS011;6652;48.802;9.190;2023-11-19T04:09:26;4.82;;;3.55;;
13173;SDS011;6652;48.802;9.190;2023-11-19T04:11:54;5.47;;;2.17;;
13173;SDS011;6652;48.802;9.190;2023-11-19T04:14:21;3.10;;;1.35;;
13173;SDS011;6652;48.802;9.190;2023-11-19T04:16:48;2.53;;;2.10;;
13173;SDS011;6652;48.802;9.190;2023-11-19T04:19:16;1.77;;;1.20;;
13173;SDS011;6652;48.802;9.190;2023-11-19T04:21:42;0.80;;;0.80;;
13173;SDS011;6652;48.802;9.190;2023-11-19T04:24:09;2.80;;;0.60;;
13173;SDS011;6652;48.802;9.190;2023-11-19T04:26:39;0.17;;;0.17;;
13173;SDS011;6652;48.802;9.190;2023-11-19T04:29:09;1.40;;;0.40;;
13173;SDS011;6652;48.802;9.190;2023-11-19T04:31:37;0.80;;;0.25;;
13173;SDS011;6652;48.802;9.190;2023-11-19T04:34:05;0.25;;;0.25;;
13173;SDS011;6652;48.802;9.190;2023-11-19T04:36:32;0.17;;;0.17;;
13173;SDS011;6652;48.802;9.190;2023-11-19T04:38:59;1.02;;;0.25;;
13173;SDS011;6652;48.802;9.190;2023-11-19T04:41:27;0.30;;;0.10;;
13173;SDS011;6652;48.802;9.190;2023-11-19T04:43:54;0.13;;;0.13;;
13173;SDS011;6652;48.802;9.190;2023-11-19T04:46:22;2.15;;;0.17;;
13173;SDS011;6652;48.802;9.190;2023-11-19T04:48:49;1.48;;;0.57;;
13173;SDS011;6652;48.802;9.190;2023-11-19T04:51:16;0.20;;;0.10;;
13173;SDS011;6652;48.802;9.190;2023-11-19T04:53:43;0.47;;;0.10;;
13173;SDS011;6652;48.802;9.190;2023-11-19T04:56:10;2.25;;;0.20;;
13173;SDS011;6652;48.802;9.190;2023-11-19T04:58:38;0.10;;;0.10;;
13173;SDS011;6652;48.802;9.190;2023-11-19T05:01:05;0.77;;;0.30;;
13173;SDS011;6652;48.802;9.190;2023-11-19T05:03:33;0.20;;;0.20;;
13173;SDS011;6652;48.802;9.190;2023-11-19T05:06:01;0.45;;;0.20;;
13173;SDS011;6652;48.802;9.190;2023-11-19T05:08:28;0.10;;;0.10;;
13173;SDS011;6652;48.802;9.190;2023-11-19T05:10:55;0.55;;;0.30;;
13173;SDS011;6652;48.802;9.190;2023-11-19T05:13:22;0.10;;;0.10;;
13173;SDS011;6652;48.802;9.190;2023-11-19T05:15:49;3.10;;;0.20;;
13173;SDS011;6652;48.802;9.190;2023-11-19T05:18:16;0.50;;;0.15;;
13173;SDS011;6652;48.802;9.190;2023-11-19T05:20:44;2.17;;;0.10;;
13173;SDS011;6652;48.802;9.190;2023-11-19T05:23:11;0.10;;;0.10;;
13173;SDS011;6652;48.802;9.190;2023-11-19T05:25:38;0.63;;;0.20;;
13173;SDS011;6652;48.802;9.190;2023-11-19T05:28:05;0.20;;;0.10;;
13173;SDS011;6652;48.802;9.190;2023-11-19T05:30:32;0.20;;;0.10;;
13173;SDS011;6652;48.802;9.190;2023-11-19T05:32:59;0.10;;;0.10;;
13173;SDS011;6652;48.802;9.190;2023-11-19T05:35:26;1.13;;;0.10;;
13173;SDS011;6652;48.802;9.190;2023-11-19T05:37:54;2.28;;;0.20;;
13173;SDS011;6652;48.802;9.190;2023-11-19T05:40:21;0.52;;;0.10;;
13173;SDS011;6652;48.802;9.190;2023-11-19T05:42:48;2.35;;;0.10;;
13173;SDS011;6652;48.802;9.190;2023-11-19T05:45:15;0.68;;;0.15;;
13173;SDS011;6652;48.802;9.190;2023-11-19T05:47:42;0.20;;;0.10;;
13173;SDS011;6652;48.802;9.190;2023-11-19T05:50:09;0.25;;;0.13;;
13173;SDS011;6652;48.802;9.190;2023-11-19T05:52:36;0.20;;;0.20;;
13173;SDS011;6652;48.802;9.190;2023-11-19T05:55:05;0.03;;;0.03;;
13173;SDS011;6652;48.802;9.190;2023-11-19T05:57:35;0.20;;;0.20;;
13173;SDS011;6652;48.802;9.190;2023-11-19T06:00:02;0.10;;;0.10;;
13173;SDS011;6652;48.802;9.190;2023-11-19T06:02:32;0.08;;;0.08;;
13173;SDS011;6652;48.802;9.190;2023-11-19T06:04:59;1.65;;;0.13;;
13173;SDS011;6652;48.802;9.190;2023-11-19T06:07:26;0.40;;;0.20;;
13173;SDS011;6652;48.802;9.190;2023-11-19T06:09:53;2.50;;;0.17;;
13173;SDS011;6652;48.802;9.190;2023-11-19T06:12:21;0.28;;;0.10;;
13173;SDS011;6652;48.802;9.190;2023-11-19T06:14:48;0.32;;;0.10;;
13173;SDS011;6652;48.802;9.190;2023-11-19T06:17:15;0.10;;;0.10;;
13173;SDS011;6652;48.802;9.190;2023-11-19T06:19:42;0.35;;;0.10;;
13173;SDS011;6652;48.802;9.190;2023-11-19T06:22:12;0.63;;;0.20;;
13173;SDS011;6652;48.802;9.190;2023-11-19T06:24:38;0.65;;;0.10;;
13173;SDS011;6652;48.802;9.190;2023-11-19T06:27:08;0.25;;;0.20;;
13173;SDS011;6652;48.802;9.190;2023-11-19T06:29:37;0.10;;;0.10;;
13173;SDS011;6652;48.802;9.190;2023-11-19T06:32:05;3.58;;;0.20;;
13173;SDS011;6652;48.802;9.190;2023-11-19T06:34:33;0.45;;;0.10;;
13173;SDS011;6652;48.802;9.190;2023-11-19T06:37:00;0.63;;;0.20;;
13173;SDS011;6652;48.802;9.190;2023-11-19T06:39:28;0.50;;;0.10;;
13173;SDS011;6652;48.802;9.190;2023-11-19T06:41:55;0.30;;;0.10;;
13173;SDS011;6652;48.802;9.190;2023-11-19T06:44:21;0.30;;;0.22;;
13173;SDS011;6652;48.802;9.190;2023-11-19T06:46:51;1.65;;;0.20;;
13173;SDS011;6652;48.802;9.190;2023-11-19T06:49:18;0.77;;;0.10;;
13173;SDS011;6652;48.802;9.190;2023-11-19T06:51:46;0.30;;;0.10;;
13173;SDS011;6652;48.802;9.190;2023-11-19T06:54:13;0.20;;;0.10;;
13173;SDS011;6652;48.802;9.190;2023-11-19T06:56:42;0.30;;;0.10;;
13173;SDS011;6652;48.802;9.190;2023-11-19T06:59:09;0.10;;;0.10;;
13173;SDS011;6652;48.802;9.190;2023-11-19T07:01:37;0.32;;;0.13;;
13173;SDS011;6652;48.802;9.190;2023-11-19T07:04:06;3.67;;;0.20;;
13173;SDS011;6652;48.802;9.190;2023-11-19T07:06:41;0.20;;;0.20;;
13173;SDS011;6652;48.802;9.190;2023-11-19T07:09:08;1.00;;;0.43;;
13173;SDS011;6652;48.802;9.190;2023-11-19T07:11:35;0.30;;;0.30;;
13173;SDS011;6652;48.802;9.190;2023-11-19T07:14:03;0.95;;;0.35;;
13173;SDS011;6652;48.802;9.190;2023-11-19T07:16:31;0.45;;;0.20;;
13173;SDS011;6652;48.802;9.190;2023-11-19T07:18:59;0.98;;;0.30;;
13173;SDS011;6652;48.802;9.190;2023-11-19T07:21:27;0.22;;;0.22;;
13173;SDS011;6652;48.802;9.190;2023-11-19T07:23:54;0.30;;;0.30;;
13173;SDS011;6652;48.802;9.190;2023-11-19T07:26:21;1.55;;;0.38;;
13173;SDS011;6652;48.802;9.190;2023-11-19T07:28:48;0.20;;;0.20;;
13173;SDS011;6652;48.802;9.190;2023-11-19T07:31:15;0.38;;;0.32;;
13173;SDS011;6652;48.802;9.190;2023-11-19T07:33:44;0.68;;;0.20;;
13173;SDS011;6652;48.802;9.190;2023-11-19T07:36:11;1.08;;;0.43;;
13173;SDS011;6652;48.802;9.190;2023-11-19T07:38:40;2.95;;;0.90;;
13173;SDS011;6652;48.802;9.190;2023-11-19T07:41:06;0.68;;;0.30;;
13173;SDS011;6652;48.802;9.190;2023-11-19T07:43:35;1.00;;;0.30;;
13173;SDS011;6652;48.802;9.190;2023-11-19T07:46:02;0.50;;;0.50;;
13173;SDS011;6652;48.802;9.190;2023-11-19T07:48:29;1.02;;;0.50;;
13173;SDS011;6652;48.802;9.190;2023-11-19T07:50:56;0.73;;;0.40;;
13173;SDS011;6652;48.802;9.190;2023-11-19T07:53:25;1.00;;;0.30;;
13173;SDS011;6652;48.802;9.190;2023-11-19T07:56:00;0.60;;;0.30;;
13173;SDS011;6652;48.802;9.190;2023-11-19T07:58:27;0.30;;;0.22;;
13173;SDS011;6652;48.802;9.190;2023-11-19T08:00:54;0.98;;;0.25;;
13173;SDS011;6652;48.802;9.190;2023-11-19T08:03:21;1.10;;;0.38;;
13173;SDS011;6652;48.802;9.190;2023-11-19T08:05:48;0.45;;;0.35;;
13173;SDS011;6652;48.802;9.190;2023-11-19T08:08:15;0.30;;;0.30;;
13173;SDS011;6652;48.802;9.190;2023-11-19T08:10:43;0.45;;;0.40;;
13173;SDS011;6652;48.802;9.190;2023-11-19T08:13:12;1.23;;;0.38;;
13173;SDS011;6652;48.802;9.190;2023-11-19T08:15:39;0.70;;;0.40;;
13173;SDS011;6652;48.802;9.190;2023-11-19T08:21:15;0.20;;;0.20;;
13173;SDS011;6652;48.802;9.190;2023-11-19T08:23:42;0.43;;;0.43;;
13173;SDS011;6652;48.802;9.190;2023-11-19T08:26:09;0.50;;;0.43;;
13173;SDS011;6652;48.802;9.190;2023-11-19T08:28:37;1.75;;;0.82;;
13173;SDS011;6652;48.802;9.190;2023-11-19T08:31:04;3.10;;;0.90;;
13173;SDS011;6652;48.802;9.190;2023-11-19T08:33:31;4.00;;;2.13;;
13173;SDS011;6652;48.802;9.190;2023-11-19T08:35:58;11.23;;;5.25;;
13173;SDS011;6652;48.802;9.190;2023-11-19T08:38:25;2.35;;;0.80;;
13173;SDS011;6652;48.802;9.190;2023-11-19T08:40:52;2.60;;;0.30;;
13173;SDS011;6652;48.802;9.190;2023-11-19T08:43:24;0.17;;;0.17;;
13173;SDS011;6652;48.802;9.190;2023-11-19T08:45:52;0.20;;;0.20;;
13173;SDS011;6652;48.802;9.190;2023-11-19T08:48:19;3.38;;;0.40;;
13173;SDS011;6652;48.802;9.190;2023-11-19T08:50:46;0.40;;;0.40;;
13173;SDS011;6652;48.802;9.190;2023-11-19T08:53:13;1.05;;;0.40;;
13173;SDS011;6652;48.802;9.190;2023-11-19T08:55:40;2.55;;;0.60;;
13173;SDS011;6652;48.802;9.190;2023-11-19T08:58:07;2.10;;;0.40;;
13173;SDS011;6652;48.802;9.190;2023-11-19T09:00:33;3.00;;;0.57;;
13173;SDS011;6652;48.802;9.190;2023-11-19T09:03:02;0.25;;;0.10;;
13173;SDS011;6652;48.802;9.190;2023-11-19T09:05:29;0.73;;;0.40;;
13173;SDS011;6652;48.802;9.190;2023-11-19T09:07:55;0.47;;;0.40;;
13173;SDS011;6652;48.802;9.190;2023-11-19T09:10:22;4.10;;;0.63;;
13173;SDS011;6652;48.802;9.190;2023-11-19T09:12:49;5.57;;;0.50;;
13173;SDS011;6652;48.802;9.190;2023-11-19T09:15:16;1.60;;;0.47;;
13173;SDS011;6652;48.802;9.190;2023-11-19T09:17:42;1.27;;;0.82;;
13173;SDS011;6652;48.802;9.190;2023-11-19T09:20:12;0.35;;;0.32;;
13173;SDS011;6652;48.802;9.190;2023-11-19T09:22:40;0.70;;;0.55;;
13173;SDS011;6652;48.802;9.190;2023-11-19T09:25:07;2.88;;;0.40;;
13173;SDS011;6652;48.802;9.190;2023-11-19T09:27:34;1.85;;;0.50;;
13173;SDS011;6652;48.802;9.190;2023-11-19T09:30:01;1.80;;;0.70;;
13173;SDS011;6652;48.802;9.190;2023-11-19T09:32:29;0.80;;;0.60;;
13173;SDS011;6652;48.802;9.190;2023-11-19T09:34:55;0.88;;;0.70;;
13173;SDS011;6652;48.802;9.190;2023-11-19T09:37:23;0.88;;;0.50;;
13173;SDS011;6652;48.802;9.190;2023-11-19T09:39:50;3.35;;;0.70;;
13173;SDS011;6652;48.802;9.190;2023-11-19T09:42:18;3.92;;;0.40;;
13173;SDS011;6652;48.802;9.190;2023-11-19T09:44:45;1.38;;;0.40;;
13173;SDS011;6652;48.802;9.190;2023-11-19T09:47:15;1.73;;;0.70;;
13173;SDS011;6652;48.802;9.190;2023-11-19T09:49:45;1.65;;;0.57;;
13173;SDS011;6652;48.802;9.190;2023-11-19T09:52:12;2.17;;;1.05;;
13173;SDS011;6652;48.802;9.190;2023-11-19T09:54:41;0.65;;;0.32;;
13173;SDS011;6652;48.802;9.190;2023-11-19T09:57:08;1.70;;;0.80;;
13173;SDS011;6652;48.802;9.190;2023-11-19T09:59:36;1.08;;;0.50;;
13173;SDS011;6652;48.802;9.190;2023-11-19T10:02:04;4.45;;;0.63;;
13173;SDS011;6652;48.802;9.190;2023-11-19T10:04:32;1.08;;;0.50;;
13173;SDS011;6652;48.802;9.190;2023-11-19T10:07:01;3.40;;;0.50;;
13173;SDS011;6652;48.802;9.190;2023-11-19T10:09:28;2.40;;;0.90;;
13173;SDS011;6652;48.802;9.190;2023-11-19T10:11:57;3.22;;;0.50;;
13173;SDS011;6652;48.802;9.190;2023-11-19T10:14:23;2.33;;;0.50;;
13173;SDS011;6652;48.802;9.190;2023-11-19T10:16:50;1.67;;;0.65;;
13173;SDS011;6652;48.802;9.190;2023-11-19T10:19:20;1.55;;;0.50;;
13173;SDS011;6652;48.802;9.190;2023-11-19T10:25:21;1.40;;;0.45;;
13173;SDS011;6652;48.802;9.190;2023-11-19T10:27:50;0.77;;;0.52;;
13173;SDS011;6652;48.802;9.190;2023-11-19T10:30:17;0.68;;;0.40;;
13173;SDS011;6652;48.802;9.190;2023-11-19T10:32:45;2.38;;;0.52;;
13173;SDS011;6652;48.802;9.190;2023-11-19T10:35:12;1.58;;;0.70;;
13173;SDS011;6652;48.802;9.190;2023-11-19T10:37:39;7.88;;;0.80;;
13173;SDS011;6652;48.802;9.190;2023-11-19T10:40:09;1.40;;;1.00;;
13173;SDS011;6652;48.802;9.190;2023-11-19T10:42:36;2.85;;;0.77;;
13173;SDS011;6652;48.802;9.190;2023-11-19T10:45:05;1.73;;;0.65;;
13173;SDS011;6652;48.802;9.190;2023-11-19T10:47:49;1.50;;;0.60;;
13173;SDS011;6652;48.802;9.190;2023-11-19T10:50:17;1.35;;;0.50;;
13173;SDS011;6652;48.802;9.190;2023-11-19T10:52:45;2.63;;;0.90;;
13173;SDS011;6652;48.802;9.190;2023-11-19T10:55:13;2.03;;;0.65;;
13173;SDS011;6652;48.802;9.190;2023-11-19T10:57:44;3.72;;;0.65;;
13173;SDS011;6652;48.802;9.190;2023-11-19T11:00:17;0.60;;;0.40;;
13173;SDS011;6652;48.802;9.190;2023-11-19T11:02:47;1.13;;;0.50;;
13173;SDS011;6652;48.802;9.190;2023-11-19T11:05:20;2.75;;;0.40;;
13173;SDS011;6652;48.802;9.190;2023-11-19T11:07:48;0.70;;;0.30;;
13173;SDS011;6652;48.802;9.190;2023-11-19T11:10:17;1.98;;;0.38;;
13173;SDS011;6652;48.802;9.190;2023-11-19T11:12:47;0.88;;;0.60;;
13173;SDS011;6652;48.802;9.190;2023-11-19T11:15:16;1.90;;;0.70;;
13173;SDS011;6652;48.802;9.190;2023-11-19T11:17:45;1.20;;;0.40;;
13173;SDS011;6652;48.802;9.190;2023-11-19T11:20:13;6.05;;;0.80;;
13173;SDS011;6652;48.802;9.190;2023-11-19T11:22:44;3.42;;;0.60;;
13173;SDS011;6652;48.802;9.190;2023-11-19T11:25:23;6.32;;;0.70;;
13173;SDS011;6652;48.802;9.190;2023-11-19T11:28:06;3.53;;;0.75;;
13173;SDS011;6652;48.802;9.190;2023-11-19T11:30:49;1.30;;;0.60;;
13173;SDS011;6652;48.802;9.190;2023-11-19T11:33:32;1.60;;;0.70;;
13173;SDS011;6652;48.802;9.190;2023-11-19T11:38:58;3.42;;;0.77;;
13173;SDS011;6652;48.802;9.190;2023-11-19T11:41:25;5.53;;;0.68;;
13173;SDS011;6652;48.802;9.190;2023-11-19T11:43:53;2.60;;;0.90;;
13173;SDS011;6652;48.802;9.190;2023-11-19T11:49:25;3.00;;;0.90;;
13173;SDS011;6652;48.802;9.190;2023-11-19T11:51:58;1.83;;;0.45;;
13173;SDS011;6652;48.802;9.190;2023-11-19T11:54:26;3.40;;;0.80;;
13173;SDS011;6652;48.802;9.190;2023-11-19T11:57:02;1.38;;;0.77;;
13173;SDS011;6652;48.802;9.190;2023-11-19T11:59:36;9.75;;;1.40;;
13173;SDS011;6652;48.802;9.190;2023-11-19T12:02:05;3.38;;;0.90;;
13173;SDS011;6652;48.802;9.190;2023-11-19T12:04:35;2.72;;;1.23;;
13173;SDS011;6652;48.802;9.190;2023-11-19T12:07:03;4.15;;;1.00;;
13173;SDS011;6652;48.802;9.190;2023-11-19T12:09:31;3.42;;;0.90;;
13173;SDS011;6652;48.802;9.190;2023-11-19T12:12:06;3.47;;;0.95;;
13173;SDS011;6652;48.802;9.190;2023-11-19T12:14:59;3.63;;;1.08;;
13173;SDS011;6652;48.802;9.190;2023-11-19T12:17:41;2.72;;;0.73;;
13173;SDS011;6652;48.802;9.190;2023-11-19T12:20:17;3.17;;;0.80;;
13173;SDS011;6652;48.802;9.190;2023-11-19T12:22:45;3.03;;;0.70;;
13173;SDS011;6652;48.802;9.190;2023-11-19T12:25:14;1.95;;;0.60;;
13173;SDS011;6652;48.802;9.190;2023-11-19T12:27:46;3.20;;;0.63;;
13173;SDS011;6652;48.802;9.190;2023-11-19T12:30:16;2.97;;;0.63;;
13173;SDS011;6652;48.802;9.190;2023-11-19T12:32:45;3.33;;;0.88;;
13173;SDS011;6652;48.802;9.190;2023-11-19T12:35:12;3.00;;;1.17;;
13173;SDS011;6652;48.802;9.190;2023-11-19T12:37:42;13.13;;;0.90;;
13173;SDS011;6652;48.802;9.190;2023-11-19T12:40:11;2.80;;;0.65;;
13173;SDS011;6652;48.802;9.190;2023-11-19T12:42:42;3.78;;;0.55;;
13173;SDS011;6652;48.802;9.190;2023-11-19T12:45:10;2.25;;;0.50;;
13173;SDS011;6652;48.802;9.190;2023-11-19T12:47:41;3.47;;;0.80;;
13173;SDS011;6652;48.802;9.190;2023-11-19T12:50:10;3.75;;;0.50;;
13173;SDS011;6652;48.802;9.190;2023-11-19T12:52:37;1.30;;;0.63;;
13173;SDS011;6652;48.802;9.190;2023-11-19T12:55:05;4.18;;;1.08;;
13173;SDS011;6652;48.802;9.190;2023-11-19T12:57:50;1.52;;;0.60;;
13173;SDS011;6652;48.802;9.190;2023-11-19T13:00:20;2.78;;;0.82;;
13173;SDS011;6652;48.802;9.190;2023-11-19T13:05:26;1.17;;;0.40;;
13173;SDS011;6652;48.802;9.190;2023-11-19T13:07:59;1.65;;;0.73;;
13173;SDS011;6652;48.802;9.190;2023-11-19T13:10:27;2.42;;;0.60;;
13173;SDS011;6652;48.802;9.190;2023-11-19T13:13:04;2.42;;;0.50;;
13173;SDS011;6652;48.802;9.190;2023-11-19T13:15:33;2.97;;;0.70;;
13173;SDS011;6652;48.802;9.190;2023-11-19T13:18:00;1.83;;;0.80;;
13173;SDS011;6652;48.802;9.190;2023-11-19T13:20:29;3.67;;;0.82;;
13173;SDS011;6652;48.802;9.190;2023-11-19T13:22:57;2.90;;;0.40;;
13173;SDS011;6652;48.802;9.190;2023-11-19T13:25:24;8.98;;;1.40;;
13173;SDS011;6652;48.802;9.190;2023-11-19T13:27:51;4.20;;;0.60;;
13173;SDS011;6652;48.802;9.190;2023-11-19T13:30:19;2.97;;;0.50;;
13173;SDS011;6652;48.802;9.190;2023-11-19T13:32:47;2.40;;;0.80;;
13173;SDS011;6652;48.802;9.190;2023-11-19T13:35:14;2.33;;;0.50;;
13173;SDS011;6652;48.802;9.190;2023-11-19T13:37:43;3.97;;;0.82;;
13173;SDS011;6652;48.802;9.190;2023-11-19T13:40:11;10.13;;;2.90;;
13173;SDS011;6652;48.802;9.190;2023-11-19T13:42:39;4.05;;;1.30;;
13173;SDS011;6652;48.802;9.190;2023-11-19T13:45:07;3.38;;;0.70;;
13173;SDS011;6652;48.802;9.190;2023-11-19T13:47:37;1.10;;;0.60;;
13173;SDS011;6652;48.802;9.190;2023-11-19T13:50:06;3.75;;;0.77;;
13173;SDS011;6652;48.802;9.190;2023-11-19T13:52:34;3.08;;;0.57;;
13173;SDS011;6652;48.802;9.190;2023-11-19T13:55:05;1.85;;;0.65;;
13173;SDS011;6652;48.802;9.190;2023-11-19T13:57:33;2.60;;;0.50;;
13173;SDS011;6652;48.802;9.190;2023-11-19T14:00:00;4.43;;;1.85;;
13173;SDS011;6652;48.802;9.190;2023-11-19T14:02:30;1.20;;;0.43;;
13173;SDS011;6652;48.802;9.190;2023-11-19T14:04:57;1.45;;;0.60;;
13173;SDS011;6652;48.802;9.190;2023-11-19T14:07:24;2.65;;;0.60;;
13173;SDS011;6652;48.802;9.190;2023-11-19T14:09:51;1.90;;;0.90;;
13173;SDS011;6652;48.802;9.190;2023-11-19T14:12:19;1.92;;;0.75;;
13173;SDS011;6652;48.802;9.190;2023-11-19T14:14:45;2.95;;;0.70;;
13173;SDS011;6652;48.802;9.190;2023-11-19T14:17:12;1.40;;;0.57;;
13173;SDS011;6652;48.802;9.190;2023-11-19T14:19:40;2.05;;;0.70;;
13173;SDS011;6652;48.802;9.190;2023-11-19T14:22:07;3.75;;;0.60;;
13173;SDS011;6652;48.802;9.190;2023-11-19T14:24:34;6.70;;;1.00;;
13173;SDS011;6652;48.802;9.190;2023-11-19T14:27:01;1.45;;;0.60;;
13173;SDS011;6652;48.802;9.190;2023-11-19T14:29:29;3.75;;;0.70;;
13173;SDS011;6652;48.802;9.190;2023-11-19T14:31:57;3.33;;;0.70;;
13173;SDS011;6652;48.802;9.190;2023-11-19T14:34:24;8.18;;;3.47;;
13173;SDS011;6652;48.802;9.190;2023-11-19T14:36:52;2.53;;;0.90;;
13173;SDS011;6652;48.802;9.190;2023-11-19T14:39:18;1.20;;;0.55;;
13173;SDS011;6652;48.802;9.190;2023-11-19T14:41:45;2.80;;;0.80;;
13173;SDS011;6652;48.802;9.190;2023-11-19T14:44:12;1.17;;;0.50;;
13173;SDS011;6652;48.802;9.190;2023-11-19T14:46:40;2.70;;;0.70;;
13173;SDS011;6652;48.802;9.190;2023-11-19T14:49:07;3.60;;;0.57;;
13173;SDS011;6652;48.802;9.190;2023-11-19T14:51:35;2.90;;;0.80;;
13173;SDS011;6652;48.802;9.190;2023-11-19T14:54:02;2.53;;;0.65;;
13173;SDS011;6652;48.802;9.190;2023-11-19T14:56:29;2.53;;;1.10;;
13173;SDS011;6652;48.802;9.190;2023-11-19T14:58:56;3.65;;;1.00;;
13173;SDS011;6652;48.802;9.190;2023-11-19T15:01:23;3.15;;;0.77;;
13173;SDS011;6652;48.802;9.190;2023-11-19T15:03:52;2.13;;;0.70;;
13173;SDS011;6652;48.802;9.190;2023-11-19T15:06:22;2.67;;;0.85;;
13173;SDS011;6652;48.802;9.190;2023-11-19T15:08:50;4.57;;;1.00;;
13173;SDS011;6652;48.802;9.190;2023-11-19T15:11:16;4.00;;;1.20;;
13173;SDS011;6652;48.802;9.190;2023-11-19T15:13:43;3.33;;;1.08;;
13173;SDS011;6652;48.802;9.190;2023-11-19T15:16:10;4.63;;;0.70;;
13173;SDS011;6652;48.802;9.190;2023-11-19T15:18:39;1.92;;;0.60;;
13173;SDS011;6652;48.802;9.190;2023-11-19T15:21:07;1.60;;;0.45;;